Time;durP1;ratioP1;P1;durP2;ratioP2;P2;SDS_P1;SDS_P2;PMS_P1;PMS_P2;Temp;Humidity;BMP_temperature;BMP_pressure;BME280_temperature;BME280_humidity;BME280_pressure;Samples;Min_cycle;Max_cycle;Signal;HPM_P1;HPM_P2
2022/05/26 00:01:46;;;;;;;0.40;0.20;;;13.20;99.90;;;;;;4932295;29;20446;-71
2022/05/26 00:04:12;;;;;;;0.40;0.30;;;13.30;99.90;;;;;;4933017;29;20415;-71
2022/05/26 00:06:37;;;;;;;0.40;0.20;;;13.20;99.90;;;;;;4933183;29;20776;-71
2022/05/26 00:09:03;;;;;;;0.40;0.20;;;13.10;99.90;;;;;;4924010;29;20393;-71
2022/05/26 00:11:34;;;;;;;0.40;0.20;;;13.10;99.90;;;;;;4914172;29;20473;-71
2022/05/26 00:14:07;;;;;;;0.40;0.30;;;13.20;99.90;;;;;;4915477;29;20761;-71
2022/05/26 00:16:42;;;;;;;0.40;0.30;;;13.20;99.90;;;;;;4917323;29;20428;-72
2022/05/26 00:19:08;;;;;;;0.40;0.30;;;13.30;99.90;;;;;;4924699;29;20459;-71
2022/05/26 00:21:34;;;;;;;0.40;0.30;;;13.10;99.90;;;;;;4936402;29;20403;-71
2022/05/26 00:24:00;;;;;;;0.40;0.20;;;13.10;99.90;;;;;;4935288;29;20435;-71
2022/05/26 00:26:25;;;;;;;0.40;0.20;;;13.00;99.90;;;;;;4930664;29;20449;-71
2022/05/26 00:28:51;;;;;;;0.40;0.30;;;13.10;99.90;;;;;;4921924;29;20399;-71
2022/05/26 00:31:17;;;;;;;0.40;0.20;;;12.90;99.90;;;;;;4934205;29;20478;-71
2022/05/26 00:33:43;;;;;;;0.40;0.30;;;12.90;99.90;;;;;;4925564;29;20424;-72
2022/05/26 00:36:12;;;;;;;0.40;0.30;;;12.90;99.90;;;;;;4925958;29;20392;-71
2022/05/26 00:38:41;;;;;;;0.40;0.40;;;13.00;99.90;;;;;;4924027;29;20940;-71
2022/05/26 00:41:12;;;;;;;0.40;0.30;;;13.10;99.90;;;;;;4925292;29;20394;-71
2022/05/26 00:43:43;;;;;;;0.40;0.20;;;12.90;99.90;;;;;;4935912;29;20415;-71
2022/05/26 00:46:18;;;;;;;0.40;0.20;;;12.80;99.90;;;;;;4935325;29;20391;-71
2022/05/26 00:48:52;;;;;;;0.40;0.30;;;12.80;99.90;;;;;;4916291;29;20489;-72
2022/05/26 00:51:31;;;;;;;0.40;0.20;;;12.80;99.90;;;;;;4916853;29;20514;-73
2022/05/26 00:54:02;;;;;;;0.40;0.30;;;12.80;99.90;;;;;;4916106;29;20397;-72
2022/05/26 00:56:45;;;;;;;0.40;0.30;;;12.80;99.90;;;;;;4916797;29;20393;-72
2022/05/26 00:59:18;;;;;;;0.40;0.30;;;12.70;99.90;;;;;;4923949;29;20403;-72
2022/05/26 01:01:44;;;;;;;0.40;0.30;;;12.70;99.90;;;;;;4935634;29;20387;-72
2022/05/26 01:04:14;;;;;;;0.40;0.25;;;12.60;99.90;;;;;;4933705;29;20447;-72
2022/05/26 01:06:53;;;;;;;0.43;0.25;;;12.60;99.90;;;;;;4935337;29;20918;-72
2022/05/26 01:09:20;;;;;;;0.40;0.20;;;12.50;99.90;;;;;;4926213;29;20758;-73
2022/05/26 01:11:46;;;;;;;0.40;0.30;;;12.60;99.90;;;;;;4923473;29;20420;-72
2022/05/26 01:14:30;;;;;;;0.40;0.30;;;12.60;99.90;;;;;;4925296;29;20392;-72
2022/05/26 01:17:04;;;;;;;0.40;0.20;;;12.50;99.90;;;;;;4922263;29;20404;-72
2022/05/26 01:20:24;;;;;;;0.40;0.30;;;12.50;99.90;;;;;;4931448;29;20743;-72
2022/05/26 01:23:17;;;;;;;0.40;0.20;;;12.40;99.90;;;;;;4875447;29;20941;-72
2022/05/26 01:26:20;;;;;;;0.40;0.20;;;12.40;99.90;;;;;;4932494;29;20435;-72
2022/05/26 01:29:16;;;;;;;0.40;0.22;;;12.60;99.90;;;;;;4933165;29;20765;-72
2022/05/26 01:32:15;;;;;;;0.40;0.20;;;12.60;99.90;;;;;;4925388;29;20517;-72
2022/05/26 01:35:04;;;;;;;0.40;0.30;;;12.70;99.90;;;;;;4904920;29;20416;-73
2022/05/26 01:37:48;;;;;;;0.40;0.20;;;12.70;99.90;;;;;;4923936;29;20502;-73
2022/05/26 01:40:36;;;;;;;0.40;0.20;;;12.60;99.90;;;;;;4929868;29;20396;-72
2022/05/26 01:43:20;;;;;;;0.40;0.20;;;12.60;99.90;;;;;;4934235;29;20446;-72
2022/05/26 01:46:01;;;;;;;0.40;0.20;;;12.70;99.90;;;;;;4922032;29;20409;-72
2022/05/26 01:49:04;;;;;;;0.40;0.20;;;12.80;99.90;;;;;;4930108;29;20813;-73
2022/05/26 01:52:02;;;;;;;0.40;0.30;;;12.80;99.90;;;;;;4921786;29;20434;-73
2022/05/26 01:54:47;;;;;;;0.40;0.30;;;12.90;99.90;;;;;;4924068;29;20419;-73
2022/05/26 01:57:40;;;;;;;0.40;0.20;;;12.70;99.90;;;;;;4924323;29;20409;-72
2022/05/26 02:00:12;;;;;;;0.40;0.20;;;12.90;99.90;;;;;;4928343;29;20411;-73
2022/05/26 02:02:42;;;;;;;0.40;0.20;;;12.80;99.90;;;;;;4934524;29;20383;-73
2022/05/26 02:05:13;;;;;;;0.40;0.20;;;12.80;99.90;;;;;;4933855;29;20406;-72
2022/05/26 02:08:13;;;;;;;0.40;0.20;;;12.60;99.90;;;;;;4933149;29;20466;-72
2022/05/26 02:10:49;;;;;;;0.40;0.20;;;12.70;99.90;;;;;;4896137;29;20523;-72
2022/05/26 02:13:45;;;;;;;0.40;0.20;;;12.70;99.90;;;;;;4924791;29;20412;-73
2022/05/26 02:16:20;;;;;;;0.40;0.20;;;12.70;99.90;;;;;;4883247;29;20535;-73
2022/05/26 02:18:54;;;;;;;0.40;0.30;;;12.70;99.90;;;;;;4924524;29;20384;-73
2022/05/26 02:21:38;;;;;;;0.40;0.30;;;12.80;99.90;;;;;;4914948;29;20908;-73
2022/05/26 02:24:36;;;;;;;0.40;0.20;;;12.80;99.90;;;;;;4914609;29;20437;-72
2022/05/26 02:27:02;;;;;;;0.40;0.20;;;12.90;99.90;;;;;;4914434;29;20401;-72
2022/05/26 02:32:12;;;;;;;0.40;0.30;;;12.80;99.90;;;;;;4915704;29;20436;-72
2022/05/26 02:34:40;;;;;;;0.40;0.30;;;12.80;99.90;;;;;;4922275;29;20815;-72
2022/05/26 02:37:07;;;;;;;0.40;0.20;;;12.80;99.90;;;;;;4922602;29;20483;-73
2022/05/26 02:39:32;;;;;;;0.40;0.20;;;12.80;99.90;;;;;;4923739;29;20406;-72
2022/05/26 02:41:59;;;;;;;0.40;0.20;;;12.80;99.90;;;;;;4922989;29;20393;-72
2022/05/26 02:44:29;;;;;;;0.40;0.30;;;12.70;99.90;;;;;;4922107;29;20415;-72
2022/05/26 02:47:21;;;;;;;0.40;0.20;;;12.70;99.90;;;;;;4922620;29;20390;-73
2022/05/26 02:50:15;;;;;;;0.40;0.20;;;12.60;99.90;;;;;;4922432;29;20892;-72
2022/05/26 02:53:04;;;;;;;0.40;0.20;;;12.60;99.90;;;;;;4918723;29;20452;-72
2022/05/26 02:55:48;;;;;;;0.40;0.20;;;12.60;99.90;;;;;;4913193;29;20902;-72
2022/05/26 02:58:23;;;;;;;0.40;0.20;;;12.50;99.90;;;;;;4914534;29;20426;-72
2022/05/26 03:01:07;;;;;;;0.40;0.20;;;12.60;99.90;;;;;;4919294;29;20436;-72
2022/05/26 03:03:51;;;;;;;0.40;0.30;;;12.50;99.90;;;;;;4924121;29;20407;-72
2022/05/26 03:06:26;;;;;;;0.40;0.20;;;12.50;99.90;;;;;;4924297;29;20401;-72
2022/05/26 03:08:53;;;;;;;0.40;0.30;;;12.50;99.90;;;;;;4923740;29;20910;-72
2022/05/26 03:11:26;;;;;;;0.40;0.20;;;12.60;99.90;;;;;;4918988;29;20425;-73
2022/05/26 03:13:52;;;;;;;0.40;0.30;;;12.60;99.90;;;;;;4913373;29;20405;-72
2022/05/26 03:16:19;;;;;;;0.40;0.30;;;12.70;99.90;;;;;;4914396;29;20449;-73
2022/05/26 03:18:45;;;;;;;0.40;0.28;;;12.70;99.90;;;;;;4914583;29;20805;-72
2022/05/26 03:21:11;;;;;;;0.40;0.20;;;12.70;99.90;;;;;;4913644;29;20397;-73
2022/05/26 03:23:39;;;;;;;0.40;0.20;;;12.70;99.90;;;;;;4918922;29;20471;-72
2022/05/26 03:26:06;;;;;;;0.40;0.28;;;12.70;99.90;;;;;;4922617;29;20393;-72
2022/05/26 03:28:32;;;;;;;0.40;0.30;;;12.80;99.90;;;;;;4922989;29;20807;-73
2022/05/26 03:30:58;;;;;;;0.40;0.20;;;12.70;99.90;;;;;;4921807;29;20423;-73
2022/05/26 03:33:24;;;;;;;0.40;0.30;;;12.80;99.90;;;;;;4925421;29;20404;-73
2022/05/26 03:41:24;;;;;;;0.40;0.20;;;12.80;99.90;;;;;;4933120;29;20398;-72
2022/05/26 03:43:57;;;;;;;0.40;0.30;;;12.80;99.90;;;;;;4932986;29;20439;-70
2022/05/26 03:46:27;;;;;;;0.40;0.20;;;12.80;99.90;;;;;;4930054;29;20456;-73
2022/05/26 03:48:53;;;;;;;0.40;0.20;;;12.80;99.90;;;;;;4921978;29;20750;-72
2022/05/26 03:51:19;;;;;;;0.40;0.30;;;12.90;99.90;;;;;;4927612;29;20419;-73
2022/05/26 03:53:44;;;;;;;0.40;0.20;;;12.90;99.90;;;;;;4924179;29;20420;-73
2022/05/26 03:56:11;;;;;;;0.40;0.20;;;12.90;99.90;;;;;;4929110;29;20396;-73
2022/05/26 03:58:37;;;;;;;0.40;0.30;;;13.00;99.90;;;;;;4928613;29;20395;-73
2022/05/26 04:01:04;;;;;;;0.40;0.30;;;13.00;99.90;;;;;;4924771;29;20708;-73
2022/05/26 04:03:30;;;;;;;0.40;0.30;;;13.00;99.90;;;;;;4925339;29;20432;-73
2022/05/26 04:05:56;;;;;;;0.40;0.20;;;13.00;99.90;;;;;;4923700;29;20433;-72
2022/05/26 04:08:22;;;;;;;0.40;0.20;;;13.00;99.90;;;;;;4922021;29;20413;-72
2022/05/26 04:10:48;;;;;;;0.40;0.30;;;13.00;99.90;;;;;;4917576;29;20488;-72
2022/05/26 04:13:14;;;;;;;0.40;0.20;;;12.90;99.90;;;;;;4916409;29;20417;-72
2022/05/26 04:15:40;;;;;;;0.40;0.20;;;12.90;99.90;;;;;;4919703;29;20457;-72
2022/05/26 04:18:06;;;;;;;0.40;0.20;;;13.00;99.90;;;;;;4915717;29;20417;-72
2022/05/26 04:20:31;;;;;;;0.40;0.20;;;13.00;99.90;;;;;;4917194;29;20405;-72
2022/05/26 04:22:57;;;;;;;0.40;0.20;;;13.00;99.90;;;;;;4916418;29;20802;-72
2022/05/26 04:25:25;;;;;;;0.40;0.20;;;13.10;99.90;;;;;;4935630;29;20420;-72
2022/05/26 04:27:53;;;;;;;0.40;0.20;;;13.00;99.90;;;;;;4935993;29;20816;-72
2022/05/26 04:30:20;;;;;;;0.40;0.20;;;13.10;99.90;;;;;;4935752;29;20423;-73
2022/05/26 04:32:46;;;;;;;0.60;0.60;;;13.20;99.90;;;;;;4935584;29;20403;-72
2022/05/26 04:35:12;;;;;;;0.40;0.20;;;13.20;99.90;;;;;;4933992;29;20480;-73
2022/05/26 04:37:38;;;;;;;0.40;0.20;;;13.20;99.90;;;;;;4917218;29;20393;-72
2022/05/26 04:40:07;;;;;;;0.40;0.30;;;13.10;99.90;;;;;;4916097;29;20404;-73
2022/05/26 04:42:33;;;;;;;0.40;0.20;;;13.20;99.90;;;;;;4916809;29;20401;-73
2022/05/26 04:44:59;;;;;;;0.40;0.30;;;13.20;99.90;;;;;;4916270;29;20401;-72
2022/05/26 04:47:25;;;;;;;0.40;0.20;;;13.20;99.90;;;;;;4915700;29;20766;-72
2022/05/26 04:49:51;;;;;;;0.40;0.20;;;13.20;99.90;;;;;;4916766;29;20390;-72
2022/05/26 04:52:19;;;;;;;0.40;0.20;;;13.30;99.90;;;;;;4915939;29;20985;-73
2022/05/26 04:54:45;;;;;;;0.40;0.20;;;13.30;99.90;;;;;;4916969;29;20504;-73
2022/05/26 04:57:13;;;;;;;0.40;0.20;;;13.30;99.90;;;;;;4916344;29;20795;-72
2022/05/26 04:59:40;;;;;;;0.40;0.20;;;13.20;99.90;;;;;;4934894;29;20388;-71
2022/05/26 05:02:09;;;;;;;0.40;0.20;;;13.20;99.90;;;;;;4934506;29;20403;-71
2022/05/26 05:04:35;;;;;;;0.40;0.20;;;13.30;99.90;;;;;;4935481;29;20388;-71
2022/05/26 05:07:00;;;;;;;0.40;0.30;;;13.30;99.90;;;;;;4934814;29;20449;-71
2022/05/26 05:09:26;;;;;;;0.40;0.20;;;13.30;99.90;;;;;;4934860;29;20392;-71
2022/05/26 05:11:52;;;;;;;0.40;0.30;;;13.50;99.90;;;;;;4935265;29;20589;-71
2022/05/26 05:14:18;;;;;;;0.40;0.20;;;13.40;99.90;;;;;;4934545;29;20876;-71
2022/05/26 05:16:45;;;;;;;0.40;0.20;;;13.40;99.90;;;;;;4935357;29;20391;-71
2022/05/26 05:19:13;;;;;;;0.40;0.20;;;13.50;99.90;;;;;;4933663;29;20411;-73
2022/05/26 05:21:41;;;;;;;0.40;0.30;;;13.50;99.90;;;;;;4935541;29;20495;-73
2022/05/26 05:24:15;;;;;;;0.40;0.20;;;13.60;99.90;;;;;;4932945;29;20942;-73
2022/05/26 05:26:45;;;;;;;0.40;0.30;;;13.60;99.90;;;;;;4935278;29;20565;-71
2022/05/26 05:29:14;;;;;;;0.40;0.30;;;13.60;99.90;;;;;;4932237;29;20457;-73
2022/05/26 05:31:57;;;;;;;0.40;0.40;;;13.80;99.90;;;;;;4935004;29;20714;-73
2022/05/26 05:34:34;;;;;;;0.40;0.20;;;13.90;99.90;;;;;;4929276;29;20890;-73
2022/05/26 05:37:00;;;;;;;0.40;0.30;;;13.80;99.90;;;;;;4925552;29;20453;-73
2022/05/26 05:39:26;;;;;;;0.40;0.30;;;13.80;99.90;;;;;;4925515;29;20410;-73
2022/05/26 05:41:54;;;;;;;0.40;0.20;;;13.70;99.90;;;;;;4926340;29;20770;-71
2022/05/26 05:44:21;;;;;;;0.40;0.30;;;13.90;99.90;;;;;;4918221;29;21092;-70
2022/05/26 05:46:57;;;;;;;0.40;0.20;;;14.00;99.90;;;;;;4922583;29;20464;-72
2022/05/26 05:49:28;;;;;;;0.40;0.30;;;14.10;99.90;;;;;;4925472;29;20443;-70
2022/05/26 05:51:55;;;;;;;0.40;0.20;;;14.20;99.90;;;;;;4918053;29;20421;-71
2022/05/26 05:54:22;;;;;;;0.40;0.20;;;14.30;99.90;;;;;;4919699;29;20415;-70
2022/05/26 05:56:48;;;;;;;0.40;0.30;;;14.40;99.90;;;;;;4926245;29;20417;-70
2022/05/26 05:59:14;;;;;;;0.40;0.30;;;14.40;99.90;;;;;;4919136;29;20401;-70
2022/05/26 06:01:41;;;;;;;0.40;0.30;;;14.50;99.90;;;;;;4918243;29;20412;-70
2022/05/26 06:04:07;;;;;;;0.40;0.20;;;14.50;99.90;;;;;;4932141;29;20410;-70
2022/05/26 06:06:42;;;;;;;0.40;0.20;;;14.50;99.90;;;;;;4932252;29;20401;-70
2022/05/26 06:09:09;;;;;;;0.40;0.30;;;14.60;99.90;;;;;;4928350;29;20490;-70
2022/05/26 06:11:35;;;;;;;0.40;0.30;;;14.60;99.90;;;;;;4926144;29;20772;-70
2022/05/26 06:14:03;;;;;;;0.40;0.20;;;14.70;99.90;;;;;;4927882;29;20401;-70
2022/05/26 06:16:29;;;;;;;0.40;0.20;;;14.80;99.90;;;;;;4928405;29;20411;-70
2022/05/26 06:18:56;;;;;;;0.40;0.20;;;14.80;99.90;;;;;;4928941;29;20921;-70
2022/05/26 06:21:21;;;;;;;0.40;0.20;;;14.90;99.90;;;;;;4926512;29;20413;-70
2022/05/26 06:23:48;;;;;;;0.40;0.30;;;14.90;99.90;;;;;;4914852;29;20408;-70
2022/05/26 06:26:14;;;;;;;0.40;0.30;;;15.00;99.90;;;;;;4917997;29;20411;-70
2022/05/26 06:31:24;;;;;;;0.40;0.30;;;15.50;99.90;;;;;;4925955;29;20475;-70
2022/05/26 06:37:16;;;;;;;0.40;0.20;;;15.80;99.90;;;;;;4928756;29;20463;-69
2022/05/26 06:39:23;;;;;;;0.40;0.20;;;15.90;99.90;;;;;;4916659;29;20868;-70
2022/05/26 06:42:05;;;;;;;0.40;0.20;;;15.90;99.90;;;;;;4927741;29;20487;-68
2022/05/26 06:44:31;;;;;;;0.40;0.20;;;16.10;99.90;;;;;;4917838;29;20916;-69
2022/05/26 06:46:57;;;;;;;0.40;0.30;;;16.20;99.90;;;;;;4915067;29;20408;-69
2022/05/26 06:49:22;;;;;;;0.40;0.30;;;16.30;99.90;;;;;;4921922;29;20860;-70
2022/05/26 06:51:48;;;;;;;0.40;0.30;;;16.40;99.90;;;;;;4930614;29;20888;-69
2022/05/26 06:54:14;;;;;;;0.40;0.30;;;16.50;99.90;;;;;;4917834;29;20425;-69
2022/05/26 06:56:39;;;;;;;0.40;0.30;;;16.40;99.90;;;;;;4922942;29;20907;-69
2022/05/26 06:59:06;;;;;;;0.40;0.30;;;16.60;99.90;;;;;;4928604;29;20756;-70
2022/05/26 07:01:32;;;;;;;0.50;0.40;;;16.70;99.90;;;;;;4924448;29;20418;-69
2022/05/26 07:03:57;;;;;;;0.40;0.20;;;16.80;99.30;;;;;;4923105;29;20387;-68
2022/05/26 07:06:26;;;;;;;0.40;0.20;;;16.90;97.30;;;;;;4931970;29;20921;-69
2022/05/26 07:08:52;;;;;;;0.40;0.20;;;16.80;98.90;;;;;;4933202;29;20395;-70
2022/05/26 07:11:18;;;;;;;0.40;0.30;;;16.80;97.30;;;;;;4932117;29;20750;-69
2022/05/26 07:13:44;;;;;;;0.40;0.30;;;16.80;98.30;;;;;;4925563;29;20410;-69
2022/05/26 07:16:11;;;;;;;0.40;0.20;;;16.90;96.70;;;;;;4932742;29;20383;-70
2022/05/26 07:18:38;;;;;;;0.40;0.20;;;16.90;96.70;;;;;;4925095;29;20401;-71
2022/05/26 07:21:06;;;;;;;0.40;0.30;;;17.00;97.40;;;;;;4925391;29;20428;-69
2022/05/26 07:23:31;;;;;;;0.40;0.20;;;17.00;95.40;;;;;;4935018;29;20414;-70
2022/05/26 07:25:57;;;;;;;0.40;0.20;;;17.10;94.90;;;;;;4932649;29;20427;-70
2022/05/26 07:28:25;;;;;;;0.40;0.20;;;17.10;95.10;;;;;;4949661;29;20907;-71
2022/05/26 07:30:53;;;;;;;0.40;0.20;;;17.10;95.40;;;;;;4935720;29;20415;-68
2022/05/26 07:33:19;;;;;;;0.40;0.20;;;17.10;94.70;;;;;;4921431;29;20408;-69
2022/05/26 07:35:46;;;;;;;0.40;0.30;;;17.30;93.40;;;;;;4931550;29;20445;-68
2022/05/26 07:43:42;;;;;;;0.40;0.30;;;17.40;93.40;;;;;;4937246;29;20391;-70
2022/05/26 07:46:10;;;;;;;0.40;0.20;;;17.40;94.30;;;;;;4926726;29;20487;-70
2022/05/26 07:48:36;;;;;;;0.40;0.30;;;17.30;93.80;;;;;;4921539;29;20474;-70
2022/05/26 07:51:02;;;;;;;0.50;0.50;;;17.50;93.80;;;;;;4935552;29;20535;-68
2022/05/26 07:53:28;;;;;;;0.40;0.30;;;17.60;93.30;;;;;;4928487;29;20752;-69
2022/05/26 07:55:54;;;;;;;0.40;0.20;;;17.60;92.80;;;;;;4928622;29;20441;-69
2022/05/26 07:58:20;;;;;;;0.40;0.20;;;17.70;92.90;;;;;;4929813;29;20403;-71
2022/05/26 08:00:46;;;;;;;0.40;0.20;;;17.60;92.60;;;;;;4933862;29;20403;-71
2022/05/26 08:03:12;;;;;;;0.40;0.20;;;17.60;93.10;;;;;;4924084;29;20430;-70
2022/05/26 08:05:40;;;;;;;0.40;0.20;;;17.60;92.10;;;;;;4934064;29;20419;-69
2022/05/26 08:08:06;;;;;;;0.40;0.20;;;17.70;91.90;;;;;;4922512;29;20435;-71
2022/05/26 08:10:32;;;;;;;0.40;0.30;;;17.70;92.20;;;;;;4927810;29;20497;-70
2022/05/26 08:12:58;;;;;;;0.40;0.30;;;17.70;92.20;;;;;;4936405;29;20812;-70
2022/05/26 08:15:24;;;;;;;0.40;0.30;;;17.70;92.40;;;;;;4935384;29;21204;-70
2022/05/26 08:17:50;;;;;;;0.40;0.30;;;17.90;91.60;;;;;;4927435;29;20447;-70
2022/05/26 08:20:16;;;;;;;0.40;0.23;;;17.80;91.70;;;;;;4935293;29;20399;-71
2022/05/26 08:22:42;;;;;;;0.40;0.30;;;17.80;92.60;;;;;;4933442;29;20478;-68
2022/05/26 08:25:09;;;;;;;0.40;0.20;;;18.00;92.20;;;;;;4920512;29;20431;-70
2022/05/26 08:27:34;;;;;;;0.40;0.30;;;18.20;91.40;;;;;;4929527;29;20419;-71
2022/05/26 08:30:03;;;;;;;0.40;0.20;;;18.30;91.20;;;;;;4926795;29;20434;-74
2022/05/26 08:32:30;;;;;;;0.40;0.30;;;18.50;87.90;;;;;;4923741;29;20916;-70
2022/05/26 08:35:08;;;;;;;0.40;0.20;;;18.70;88.30;;;;;;4918813;29;20408;-73
2022/05/26 08:37:34;;;;;;;0.40;0.20;;;18.70;85.50;;;;;;4924298;29;20405;-71
2022/05/26 08:40:00;;;;;;;0.40;0.30;;;18.90;86.30;;;;;;4932263;29;20407;-71
2022/05/26 08:42:29;;;;;;;0.40;0.30;;;18.90;83.80;;;;;;4935062;29;20480;-73
2022/05/26 08:45:01;;;;;;;0.40;0.20;;;19.10;84.10;;;;;;4932328;29;20407;-73
2022/05/26 08:47:48;;;;;;;0.55;0.43;;;19.30;84.20;;;;;;4928505;29;20412;-73
2022/05/26 08:50:16;;;;;;;0.40;0.20;;;19.10;78.70;;;;;;4929180;29;20415;-72
2022/05/26 08:53:03;;;;;;;0.40;0.30;;;19.30;80.30;;;;;;4924572;29;20919;-72
2022/05/26 08:55:44;;;;;;;0.40;0.20;;;19.30;80.10;;;;;;4928355;29;20509;-73
2022/05/26 08:58:25;;;;;;;0.40;0.30;;;19.40;81.40;;;;;;4929405;29;20422;-71
2022/05/26 09:00:51;;;;;;;0.40;0.30;;;19.30;81.80;;;;;;4926567;29;20415;-72
2022/05/26 09:03:26;;;;;;;0.40;0.40;;;19.20;81.70;;;;;;4926664;29;20788;-72
2022/05/26 09:06:01;;;;;;;0.40;0.30;;;19.50;82.50;;;;;;4928181;29;20542;-74
2022/05/26 09:14:05;;;;;;;0.40;0.30;;;19.50;83.10;;;;;;4925486;29;20415;-72
2022/05/26 09:16:39;;;;;;;0.40;0.30;;;19.70;81.00;;;;;;4928606;29;20395;-74
2022/05/26 09:19:11;;;;;;;0.40;0.30;;;19.80;81.60;;;;;;4931944;29;21939;-70
2022/05/26 09:21:37;;;;;;;0.40;0.20;;;19.60;79.50;;;;;;4929663;29;20411;-70
2022/05/26 09:24:25;;;;;;;0.47;0.35;;;19.50;79.60;;;;;;4925298;29;20788;-72
2022/05/26 09:26:58;;;;;;;0.40;0.20;;;19.50;84.70;;;;;;4919546;29;20736;-72
2022/05/26 09:29:30;;;;;;;0.40;0.20;;;19.40;80.60;;;;;;4932880;29;20435;-70
2022/05/26 09:31:58;;;;;;;0.40;0.20;;;19.30;79.60;;;;;;4922798;29;20425;-71
2022/05/26 09:34:29;;;;;;;0.40;0.20;;;19.40;80.00;;;;;;4928178;29;20817;-71
2022/05/26 09:37:03;;;;;;;0.40;0.20;;;19.30;79.80;;;;;;4934081;29;20749;-71
2022/05/26 09:39:42;;;;;;;0.40;0.30;;;19.40;79.50;;;;;;4930502;29;20559;-70
2022/05/26 09:42:17;;;;;;;0.40;0.30;;;19.60;78.70;;;;;;4921898;29;20880;-71
2022/05/26 09:44:56;;;;;;;0.40;0.20;;;19.50;80.30;;;;;;4932622;29;20422;-71
2022/05/26 09:47:39;;;;;;;0.40;0.20;;;19.80;81.60;;;;;;4921351;29;20406;-69
2022/05/26 09:50:29;;;;;;;0.40;0.20;;;19.70;80.90;;;;;;4925783;29;20437;-71
2022/05/26 09:52:55;;;;;;;0.40;0.20;;;19.90;82.70;;;;;;4922790;29;20427;-71
2022/05/26 09:55:26;;;;;;;0.40;0.30;;;19.90;81.50;;;;;;4930197;29;20410;-69
2022/05/26 09:58:07;;;;;;;0.40;0.20;;;19.80;81.50;;;;;;4924980;29;20440;-70
2022/05/26 10:00:43;;;;;;;0.40;0.30;;;19.90;80.10;;;;;;4927101;29;20896;-71
2022/05/26 10:03:34;;;;;;;0.40;0.20;;;19.90;83.60;;;;;;4929961;29;20426;-71
2022/05/26 10:06:25;;;;;;;0.40;0.30;;;19.80;83.20;;;;;;4918281;29;20411;-70
2022/05/26 10:09:14;;;;;;;0.40;0.20;;;19.60;84.80;;;;;;4930875;29;20451;-69
2022/05/26 10:12:13;;;;;;;0.40;0.20;;;19.70;81.20;;;;;;4891774;29;20427;-69
2022/05/26 10:14:59;;;;;;;0.40;0.30;;;19.50;81.30;;;;;;4930232;29;20408;-70
2022/05/26 10:17:33;;;;;;;0.40;0.20;;;19.60;81.30;;;;;;4929712;29;20434;-72
2022/05/26 10:20:17;;;;;;;0.40;0.30;;;19.70;82.50;;;;;;4931913;29;20423;-70
2022/05/26 10:23:10;;;;;;;0.40;0.20;;;19.90;80.20;;;;;;4924219;29;20417;-72
2022/05/26 10:26:06;;;;;;;0.40;0.30;;;20.10;80.40;;;;;;4931316;29;20439;-72
2022/05/26 10:29:05;;;;;;;0.40;0.22;;;20.10;81.10;;;;;;4926884;29;20419;-72
2022/05/26 10:31:34;;;;;;;0.40;0.20;;;20.30;81.10;;;;;;4940669;29;20436;-71
2022/05/26 10:34:11;;;;;;;0.40;0.30;;;20.40;79.30;;;;;;4924599;29;20421;-71
2022/05/26 10:36:57;;;;;;;0.40;0.30;;;20.30;84.30;;;;;;4932329;29;20403;-71
2022/05/26 10:39:38;;;;;;;0.40;0.30;;;20.40;76.90;;;;;;4918121;29;20416;-71
2022/05/26 10:42:31;;;;;;;0.40;0.30;;;20.50;76.90;;;;;;4934326;29;20399;-70
2022/05/26 10:45:09;;;;;;;0.40;0.20;;;20.20;77.50;;;;;;4933493;29;20430;-70
2022/05/26 10:47:59;;;;;;;0.40;0.30;;;20.30;76.50;;;;;;4941485;29;20399;-72
2022/05/26 10:50:49;;;;;;;0.40;0.20;;;20.30;78.10;;;;;;4919628;29;20423;-69
2022/05/26 10:53:45;;;;;;;0.40;0.20;;;20.10;75.50;;;;;;4939087;29;20415;-72
2022/05/26 10:56:39;;;;;;;0.40;0.20;;;20.60;76.00;;;;;;4922147;29;20520;-71
2022/05/26 10:59:26;;;;;;;0.40;0.30;;;20.90;75.90;;;;;;4944880;29;20414;-71
2022/05/26 11:02:06;;;;;;;0.40;0.20;;;21.30;76.80;;;;;;4929204;29;20422;-72
2022/05/26 11:04:53;;;;;;;0.40;0.28;;;21.40;75.10;;;;;;4931930;29;20468;-72
2022/05/26 11:07:34;;;;;;;0.40;0.30;;;21.10;73.50;;;;;;4946974;29;20810;-69
2022/05/26 11:10:13;;;;;;;0.40;0.30;;;21.10;74.40;;;;;;4934330;29;20408;-72
2022/05/26 11:12:51;;;;;;;0.40;0.30;;;21.00;75.20;;;;;;4927380;29;20490;-72
2022/05/26 11:18:30;;;;;;;0.40;0.20;;;21.40;72.80;;;;;;4927823;29;20843;-71
2022/05/26 11:20:57;;;;;;;0.40;0.30;;;21.10;72.60;;;;;;4945489;29;20874;-71
2022/05/26 11:23:30;;;;;;;0.40;0.30;;;21.10;72.50;;;;;;4948338;29;20405;-73
2022/05/26 11:25:58;;;;;;;0.40;0.30;;;20.90;72.40;;;;;;4947489;29;20415;-72
2022/05/26 11:28:40;;;;;;;0.40;0.30;;;21.10;73.10;;;;;;4932575;29;20421;-76
2022/05/26 11:37:00;;;;;;;0.40;0.30;;;20.90;74.80;;;;;;4947811;29;20409;-73
2022/05/26 11:39:40;;;;;;;0.40;0.30;;;20.60;76.10;;;;;;4926161;29;20419;-72
2022/05/26 11:42:24;;;;;;;0.40;0.20;;;20.60;77.90;;;;;;4930257;29;20414;-73
2022/05/26 11:45:08;;;;;;;0.40;0.20;;;20.80;77.20;;;;;;4934186;29;20918;-73
2022/05/26 11:47:52;;;;;;;0.40;0.20;;;20.80;75.80;;;;;;4943904;29;20391;-71
2022/05/26 11:50:30;;;;;;;0.40;0.30;;;20.60;76.60;;;;;;4945684;29;20390;-72
2022/05/26 11:52:56;;;;;;;0.40;0.30;;;20.50;78.30;;;;;;4933984;29;20435;-72
2022/05/26 11:55:33;;;;;;;0.40;0.20;;;20.70;80.20;;;;;;4932276;29;20466;-71
2022/05/26 11:58:29;;;;;;;0.40;0.30;;;20.50;79.00;;;;;;4926316;29;20404;-71
2022/05/26 12:01:16;;;;;;;0.40;0.20;;;20.60;79.90;;;;;;4913915;29;20401;-72
2022/05/26 12:04:00;;;;;;;0.40;0.20;;;20.90;81.00;;;;;;4913384;29;20401;-72
2022/05/26 12:06:34;;;;;;;0.40;0.20;;;21.30;76.10;;;;;;4913287;29;20393;-72
2022/05/26 12:09:24;;;;;;;0.40;0.30;;;21.60;76.30;;;;;;4915253;29;20398;-72
2022/05/26 12:11:59;;;;;;;0.40;0.20;;;22.20;73.90;;;;;;4910051;29;20464;-72
2022/05/26 12:14:58;;;;;;;0.40;0.28;;;22.10;75.30;;;;;;4916995;29;20443;-72
2022/05/26 12:17:30;;;;;;;0.40;0.20;;;22.30;75.60;;;;;;4914860;29;20489;-72
2022/05/26 12:20:11;;;;;;;0.40;0.22;;;22.40;77.30;;;;;;4955571;29;20410;-71
2022/05/26 12:22:39;;;;;;;0.40;0.30;;;21.80;73.00;;;;;;4954894;29;20405;-71
2022/05/26 12:25:16;;;;;;;0.40;0.22;;;21.60;71.40;;;;;;4955158;28;20512;-71
2022/05/26 12:27:55;;;;;;;0.40;0.30;;;22.00;71.70;;;;;;4954900;29;20390;-72
2022/05/26 12:30:48;;;;;;;0.40;0.20;;;21.60;74.10;;;;;;4954793;29;20502;-73
2022/05/26 12:33:19;;;;;;;0.40;0.20;;;21.90;75.10;;;;;;4953472;29;20408;-73
2022/05/26 12:35:54;;;;;;;0.40;0.20;;;21.50;75.00;;;;;;4954966;29;20417;-73
2022/05/26 12:38:37;;;;;;;0.40;0.30;;;21.30;76.30;;;;;;4955037;29;20434;-72
2022/05/26 12:41:24;;;;;;;0.40;0.30;;;21.20;78.20;;;;;;4955307;29;20401;-72
2022/05/26 12:44:24;;;;;;;0.40;0.20;;;21.80;77.80;;;;;;4955175;29;20783;-72
2022/05/26 12:47:34;;;;;;;0.40;0.30;;;21.60;76.00;;;;;;4955105;29;20793;-69
2022/05/26 12:50:06;;;;;;;0.40;0.22;;;21.10;76.10;;;;;;4944758;29;20392;-72
2022/05/26 12:52:42;;;;;;;0.40;0.30;;;21.30;78.20;;;;;;4935065;29;20753;-70
2022/05/26 12:55:22;;;;;;;0.40;0.30;;;21.60;75.70;;;;;;4935528;29;20423;-73
2022/05/26 12:58:11;;;;;;;0.40;0.30;;;21.00;75.20;;;;;;4930404;29;20405;-72
2022/05/26 13:00:47;;;;;;;0.40;0.30;;;20.90;79.60;;;;;;4909391;29;20527;-72
2022/05/26 13:03:48;;;;;;;0.40;0.30;;;21.00;77.10;;;;;;4916847;29;20397;-74
2022/05/26 13:06:20;;;;;;;0.40;0.20;;;21.30;77.10;;;;;;4916536;29;20484;-72
2022/05/26 13:08:53;;;;;;;0.40;0.30;;;21.30;76.50;;;;;;4915876;29;20405;-73
2022/05/26 13:11:25;;;;;;;0.40;0.20;;;21.20;77.10;;;;;;4941349;29;20418;-72
2022/05/26 13:13:56;;;;;;;0.40;0.30;;;20.80;76.70;;;;;;4954894;29;20402;-72
2022/05/26 13:16:42;;;;;;;0.40;0.20;;;20.80;78.70;;;;;;4954357;29;20417;-72
2022/05/26 13:19:21;;;;;;;0.40;0.30;;;20.90;77.10;;;;;;4954818;29;20874;-72
2022/05/26 13:21:49;;;;;;;0.40;0.20;;;21.00;76.70;;;;;;4953708;28;20398;-72
2022/05/26 13:24:35;;;;;;;0.40;0.20;;;21.40;76.30;;;;;;4954072;29;20414;-73
2022/05/26 13:27:08;;;;;;;0.40;0.30;;;21.50;74.80;;;;;;4953814;29;20441;-75
2022/05/26 13:29:36;;;;;;;0.40;0.20;;;21.80;77.50;;;;;;4953706;29;20390;-72
2022/05/26 13:34:51;;;;;;;0.40;0.20;;;21.50;75.70;;;;;;4954007;29;20443;-72
2022/05/26 13:37:29;;;;;;;0.40;0.20;;;21.30;76.80;;;;;;4953850;29;20413;-74
2022/05/26 13:40:14;;;;;;;0.40;0.20;;;20.70;77.20;;;;;;4952860;29;20402;-73
2022/05/26 13:42:46;;;;;;;0.40;0.20;;;21.10;80.20;;;;;;4953203;29;20409;-73
2022/05/26 13:45:29;;;;;;;0.40;0.30;;;21.80;77.30;;;;;;4954442;29;20747;-72
2022/05/26 13:48:20;;;;;;;0.40;0.20;;;21.90;73.80;;;;;;4953772;29;20392;-72
2022/05/26 13:50:50;;;;;;;0.40;0.30;;;21.80;73.90;;;;;;4939881;29;20418;-72
2022/05/26 13:53:18;;;;;;;0.40;0.20;;;21.60;75.30;;;;;;4953982;29;20795;-74
2022/05/26 13:55:45;;;;;;;0.40;0.20;;;21.40;77.30;;;;;;4953091;29;20417;-73
2022/05/26 13:58:13;;;;;;;0.40;0.20;;;21.50;77.30;;;;;;4953827;29;20390;-71
2022/05/26 14:00:39;;;;;;;0.40;0.20;;;21.90;74.00;;;;;;4952782;28;20434;-71